sensor_id;sensor_type;location;lat;lon;timestamp;pressure;altitude;pressure_sealevel;temperature;humidity
57248;BME280;55809;46.618;10.764;2023-02-15T00:02:28;94188.16;;;4.04;39.81
57248;BME280;55809;46.618;10.764;2023-02-15T00:05:36;94179.47;;;4.07;39.98
57248;BME280;55809;46.618;10.764;2023-02-15T00:08:41;94251.03;;;4.64;40.28
57248;BME280;55809;46.618;10.764;2023-02-15T00:11:24;94245.16;;;4.70;39.80
57248;BME280;55809;46.618;10.764;2023-02-15T00:14:23;94173.09;;;3.99;40.92
57248;BME280;55809;46.618;10.764;2023-02-15T00:17:28;94267.41;;;4.62;42.14
57248;BME280;55809;46.618;10.764;2023-02-15T00:20:16;94315.13;;;4.73;42.36
57248;BME280;55809;46.618;10.764;2023-02-15T00:22:51;94247.25;;;4.44;42.08
57248;BME280;55809;46.618;10.764;2023-02-15T00:25:57;94162.78;;;3.68;41.66
57248;BME280;55809;46.618;10.764;2023-02-15T00:29:02;94202.22;;;3.92;41.93
57248;BME280;55809;46.618;10.764;2023-02-15T00:31:48;94237.75;;;4.13;41.41
57248;BME280;55809;46.618;10.764;2023-02-15T00:34:26;94309.94;;;4.55;40.67
57248;BME280;55809;46.618;10.764;2023-02-15T00:36:54;94265.44;;;4.30;41.03
57248;BME280;55809;46.618;10.764;2023-02-15T00:39:22;94245.63;;;4.10;42.08
57248;BME280;55809;46.618;10.764;2023-02-15T00:41:51;94271.69;;;4.34;42.87
57248;BME280;55809;46.618;10.764;2023-02-15T00:44:18;94300.41;;;4.45;42.82
57248;BME280;55809;46.618;10.764;2023-02-15T00:46:47;94298.25;;;4.39;41.40
57248;BME280;55809;46.618;10.764;2023-02-15T00:49:14;94298.06;;;4.14;42.08
57248;BME280;55809;46.618;10.764;2023-02-15T00:51:41;94284.00;;;4.05;42.01
57248;BME280;55809;46.618;10.764;2023-02-15T00:54:08;94299.22;;;4.05;42.02
57248;BME280;55809;46.618;10.764;2023-02-15T00:56:37;94236.66;;;3.55;42.41
57248;BME280;55809;46.618;10.764;2023-02-15T00:59:04;94232.13;;;3.56;42.39
57248;BME280;55809;46.618;10.764;2023-02-15T01:01:31;94287.19;;;3.98;42.29
57248;BME280;55809;46.618;10.764;2023-02-15T01:03:58;94284.81;;;3.97;42.55
57248;BME280;55809;46.618;10.764;2023-02-15T01:06:26;94293.63;;;3.97;42.17
57248;BME280;55809;46.618;10.764;2023-02-15T01:08:53;94298.19;;;3.97;42.13
57248;BME280;55809;46.618;10.764;2023-02-15T01:11:22;94282.53;;;3.87;42.17
57248;BME280;55809;46.618;10.764;2023-02-15T01:13:54;94288.28;;;3.97;42.50
57248;BME280;55809;46.618;10.764;2023-02-15T01:16:23;94290.44;;;4.04;42.07
57248;BME280;55809;46.618;10.764;2023-02-15T01:18:52;94281.00;;;4.07;41.88
57248;BME280;55809;46.618;10.764;2023-02-15T01:21:23;94287.06;;;3.95;41.86
57248;BME280;55809;46.618;10.764;2023-02-15T01:23:50;94282.91;;;4.06;41.79
57248;BME280;55809;46.618;10.764;2023-02-15T01:26:17;94285.09;;;4.04;41.98
57248;BME280;55809;46.618;10.764;2023-02-15T01:28:44;94232.53;;;3.66;41.81
57248;BME280;55809;46.618;10.764;2023-02-15T01:31:16;94268.28;;;4.04;41.63
57248;BME280;55809;46.618;10.764;2023-02-15T01:33:44;94277.81;;;4.13;42.21
57248;BME280;55809;46.618;10.764;2023-02-15T01:36:12;94281.81;;;4.28;41.62
57248;BME280;55809;46.618;10.764;2023-02-15T01:38:39;94233.75;;;3.98;41.37
57248;BME280;55809;46.618;10.764;2023-02-15T01:41:07;94279.03;;;4.25;41.14
57248;BME280;55809;46.618;10.764;2023-02-15T01:43:50;94166.69;;;3.49;41.30
57248;BME280;55809;46.618;10.764;2023-02-15T01:46:22;94260.41;;;4.07;41.34
57248;BME280;55809;46.618;10.764;2023-02-15T01:48:55;94271.66;;;4.21;41.02
57248;BME280;55809;46.618;10.764;2023-02-15T01:51:26;94263.81;;;4.16;40.77
57248;BME280;55809;46.618;10.764;2023-02-15T01:53:59;94238.31;;;3.98;40.93
57248;BME280;55809;46.618;10.764;2023-02-15T01:56:30;94258.81;;;4.15;41.04
57248;BME280;55809;46.618;10.764;2023-02-15T01:59:00;94266.31;;;4.21;41.22
57248;BME280;55809;46.618;10.764;2023-02-15T02:01:31;94211.94;;;3.96;40.90
57248;BME280;55809;46.618;10.764;2023-02-15T02:04:02;94261.53;;;4.27;41.19
57248;BME280;55809;46.618;10.764;2023-02-15T02:06:33;94222.09;;;4.03;41.29
57248;BME280;55809;46.618;10.764;2023-02-15T02:09:03;94231.03;;;4.07;41.19
57248;BME280;55809;46.618;10.764;2023-02-15T02:11:30;94214.66;;;3.88;41.61
57248;BME280;55809;46.618;10.764;2023-02-15T02:13:58;94250.88;;;3.97;41.61
57248;BME280;55809;46.618;10.764;2023-02-15T02:16:28;94231.19;;;3.81;41.72
57248;BME280;55809;46.618;10.764;2023-02-15T02:19:19;94238.00;;;3.99;42.65
57248;BME280;55809;46.618;10.764;2023-02-15T02:28:39;94217.78;;;3.90;41.29
57248;BME280;55809;46.618;10.764;2023-02-15T02:31:43;94197.47;;;3.68;42.19
57248;BME280;55809;46.618;10.764;2023-02-15T02:34:18;94216.28;;;3.80;42.99
57248;BME280;55809;46.618;10.764;2023-02-15T02:36:52;94234.63;;;3.82;42.55
57248;BME280;55809;46.618;10.764;2023-02-15T02:39:30;94209.91;;;3.64;42.29
57248;BME280;55809;46.618;10.764;2023-02-15T02:42:04;94231.56;;;3.71;42.46
57248;BME280;55809;46.618;10.764;2023-02-15T02:44:37;94205.59;;;3.50;42.42
57248;BME280;55809;46.618;10.764;2023-02-15T02:47:12;94223.16;;;3.51;42.45
57248;BME280;55809;46.618;10.764;2023-02-15T02:49:43;94173.53;;;3.29;42.21
57248;BME280;55809;46.618;10.764;2023-02-15T02:52:35;94219.19;;;3.66;42.84
57248;BME280;55809;46.618;10.764;2023-02-15T02:55:04;94188.59;;;3.55;43.12
57248;BME280;55809;46.618;10.764;2023-02-15T02:57:32;94214.72;;;3.79;42.20
57248;BME280;55809;46.618;10.764;2023-02-15T03:00:03;94184.50;;;3.28;42.79
57248;BME280;55809;46.618;10.764;2023-02-15T03:02:36;94179.53;;;3.18;43.34
57248;BME280;55809;46.618;10.764;2023-02-15T03:05:11;94207.38;;;3.38;43.20
57248;BME280;55809;46.618;10.764;2023-02-15T03:07:41;94167.22;;;2.96;43.44
57248;BME280;55809;46.618;10.764;2023-02-15T03:10:09;94184.72;;;3.14;42.92
57248;BME280;55809;46.618;10.764;2023-02-15T03:12:39;94201.06;;;3.13;43.40
57248;BME280;55809;46.618;10.764;2023-02-15T03:15:09;94211.81;;;3.25;43.50
57248;BME280;55809;46.618;10.764;2023-02-15T03:17:40;94194.94;;;3.12;43.37
57248;BME280;55809;46.618;10.764;2023-02-15T03:20:14;94204.28;;;3.27;43.31
57248;BME280;55809;46.618;10.764;2023-02-15T03:22:45;94202.38;;;3.36;42.99
57248;BME280;55809;46.618;10.764;2023-02-15T03:25:18;94142.72;;;3.02;42.75
57248;BME280;55809;46.618;10.764;2023-02-15T03:27:49;94157.28;;;3.14;42.81
57248;BME280;55809;46.618;10.764;2023-02-15T03:30:24;94204.72;;;3.38;42.60
57248;BME280;55809;46.618;10.764;2023-02-15T03:32:52;94216.59;;;3.49;42.83
57248;BME280;55809;46.618;10.764;2023-02-15T03:35:24;94210.53;;;3.40;42.73
57248;BME280;55809;46.618;10.764;2023-02-15T03:37:55;94142.50;;;2.87;43.14
57248;BME280;55809;46.618;10.764;2023-02-15T03:40:28;94163.34;;;2.76;43.32
57248;BME280;55809;46.618;10.764;2023-02-15T03:43:18;94204.38;;;3.01;43.12
57248;BME280;55809;46.618;10.764;2023-02-15T03:45:51;94198.56;;;3.08;43.26
57248;BME280;55809;46.618;10.764;2023-02-15T03:48:25;94183.84;;;3.01;43.82
57248;BME280;55809;46.618;10.764;2023-02-15T03:50:58;94182.72;;;3.02;43.89
57248;BME280;55809;46.618;10.764;2023-02-15T03:53:44;94231.59;;;3.33;43.53
57248;BME280;55809;46.618;10.764;2023-02-15T03:56:12;94232.53;;;3.28;42.89
57248;BME280;55809;46.618;10.764;2023-02-15T03:58:39;94230.63;;;3.37;43.50
57248;BME280;55809;46.618;10.764;2023-02-15T04:01:26;94222.50;;;3.25;42.45
57248;BME280;55809;46.618;10.764;2023-02-15T04:04:15;94231.59;;;3.33;43.70
57248;BME280;55809;46.618;10.764;2023-02-15T04:06:46;94233.16;;;3.34;44.46
57248;BME280;55809;46.618;10.764;2023-02-15T04:09:14;94234.56;;;3.31;44.30
57248;BME280;55809;46.618;10.764;2023-02-15T04:11:58;94226.44;;;3.19;44.76
57248;BME280;55809;46.618;10.764;2023-02-15T04:14:25;94225.56;;;3.06;44.63
57248;BME280;55809;46.618;10.764;2023-02-15T04:17:09;94224.63;;;3.02;44.80
57248;BME280;55809;46.618;10.764;2023-02-15T04:19:36;94231.09;;;2.84;44.43
57248;BME280;55809;46.618;10.764;2023-02-15T04:22:22;94237.06;;;2.80;44.90
57248;BME280;55809;46.618;10.764;2023-02-15T04:25:07;94215.91;;;2.75;45.16
57248;BME280;55809;46.618;10.764;2023-02-15T04:27:37;94175.66;;;2.51;44.97
57248;BME280;55809;46.618;10.764;2023-02-15T04:30:05;94189.78;;;2.34;45.45
57248;BME280;55809;46.618;10.764;2023-02-15T04:32:32;94230.19;;;2.62;44.77
57248;BME280;55809;46.618;10.764;2023-02-15T04:34:59;94160.97;;;2.10;45.94
57248;BME280;55809;46.618;10.764;2023-02-15T04:37:28;94236.63;;;2.61;44.98
57248;BME280;55809;46.618;10.764;2023-02-15T04:39:55;94233.63;;;2.63;44.29
57248;BME280;55809;46.618;10.764;2023-02-15T04:42:24;94188.50;;;2.40;44.36
57248;BME280;55809;46.618;10.764;2023-02-15T04:44:51;94155.00;;;2.30;43.50
57248;BME280;55809;46.618;10.764;2023-02-15T04:47:18;94143.53;;;2.47;43.28
57248;BME280;55809;46.618;10.764;2023-02-15T04:49:47;94165.59;;;2.56;43.43
57248;BME280;55809;46.618;10.764;2023-02-15T04:52:14;94220.22;;;3.06;43.15
57248;BME280;55809;46.618;10.764;2023-02-15T04:54:44;94219.97;;;2.90;43.34
57248;BME280;55809;46.618;10.764;2023-02-15T04:57:12;94155.91;;;2.52;43.31
57248;BME280;55809;46.618;10.764;2023-02-15T04:59:39;94198.78;;;2.94;43.16
57248;BME280;55809;46.618;10.764;2023-02-15T05:02:06;94199.56;;;2.86;43.54
57248;BME280;55809;46.618;10.764;2023-02-15T05:04:34;94222.59;;;2.99;43.69
57248;BME280;55809;46.618;10.764;2023-02-15T05:07:01;94217.84;;;3.13;43.70
57248;BME280;55809;46.618;10.764;2023-02-15T05:09:28;94217.22;;;3.16;44.42
57248;BME280;55809;46.618;10.764;2023-02-15T05:11:57;94195.56;;;3.09;44.06
57248;BME280;55809;46.618;10.764;2023-02-15T05:14:24;94163.81;;;2.87;42.96
57248;BME280;55809;46.618;10.764;2023-02-15T05:16:51;94220.19;;;3.15;42.53
57248;BME280;55809;46.618;10.764;2023-02-15T05:19:19;94182.78;;;2.85;42.48
57248;BME280;55809;46.618;10.764;2023-02-15T05:21:46;94218.94;;;3.12;43.11
57248;BME280;55809;46.618;10.764;2023-02-15T05:24:13;94224.94;;;3.00;44.01
57248;BME280;55809;46.618;10.764;2023-02-15T05:26:59;94158.56;;;2.61;43.13
57248;BME280;55809;46.618;10.764;2023-02-15T05:29:43;94178.28;;;2.68;43.62
57248;BME280;55809;46.618;10.764;2023-02-15T05:32:12;94217.28;;;2.90;45.02
57248;BME280;55809;46.618;10.764;2023-02-15T05:34:39;94212.88;;;2.86;46.16
57248;BME280;55809;46.618;10.764;2023-02-15T05:37:07;94226.84;;;3.00;45.89
57248;BME280;55809;46.618;10.764;2023-02-15T05:39:34;94193.03;;;2.66;45.59
57248;BME280;55809;46.618;10.764;2023-02-15T05:42:03;94206.00;;;2.76;43.64
57248;BME280;55809;46.618;10.764;2023-02-15T05:44:30;94224.81;;;2.88;43.21
57248;BME280;55809;46.618;10.764;2023-02-15T05:46:57;94234.41;;;2.80;43.40
57248;BME280;55809;46.618;10.764;2023-02-15T05:49:24;94220.47;;;2.66;43.73
57248;BME280;55809;46.618;10.764;2023-02-15T05:51:51;94233.63;;;2.71;43.59
57248;BME280;55809;46.618;10.764;2023-02-15T05:54:18;94237.25;;;2.67;43.93
57248;BME280;55809;46.618;10.764;2023-02-15T05:56:46;94168.97;;;2.19;43.93
57248;BME280;55809;46.618;10.764;2023-02-15T05:59:14;94165.81;;;2.17;44.42
57248;BME280;55809;46.618;10.764;2023-02-15T06:01:41;94196.84;;;2.39;43.82
57248;BME280;55809;46.618;10.764;2023-02-15T06:04:08;94156.88;;;2.04;43.77
57248;BME280;55809;46.618;10.764;2023-02-15T06:06:35;94247.28;;;2.61;44.14
57248;BME280;55809;46.618;10.764;2023-02-15T06:09:03;94240.84;;;2.62;44.96
57248;BME280;55809;46.618;10.764;2023-02-15T06:11:30;94247.13;;;2.57;45.11
57248;BME280;55809;46.618;10.764;2023-02-15T06:13:57;94204.53;;;2.31;45.08
57248;BME280;55809;46.618;10.764;2023-02-15T06:16:25;94234.28;;;2.51;44.91
57248;BME280;55809;46.618;10.764;2023-02-15T06:18:52;94234.13;;;2.56;45.04
57248;BME280;55809;46.618;10.764;2023-02-15T06:21:19;94241.00;;;2.66;44.94
57248;BME280;55809;46.618;10.764;2023-02-15T06:23:46;94192.28;;;2.48;43.26
57248;BME280;55809;46.618;10.764;2023-02-15T06:26:13;94241.59;;;2.97;42.59
57248;BME280;55809;46.618;10.764;2023-02-15T06:28:40;94240.75;;;3.05;42.51
57248;BME280;55809;46.618;10.764;2023-02-15T06:31:07;94182.50;;;2.69;42.54
57248;BME280;55809;46.618;10.764;2023-02-15T06:33:36;94247.81;;;3.10;42.33
57248;BME280;55809;46.618;10.764;2023-02-15T06:36:04;94245.00;;;3.07;42.39
57248;BME280;55809;46.618;10.764;2023-02-15T06:38:31;94222.28;;;2.92;42.61
57248;BME280;55809;46.618;10.764;2023-02-15T06:40:58;94247.03;;;3.10;42.70
57248;BME280;55809;46.618;10.764;2023-02-15T06:43:25;94246.25;;;3.09;44.30
57248;BME280;55809;46.618;10.764;2023-02-15T06:45:52;94249.22;;;3.16;42.34
57248;BME280;55809;46.618;10.764;2023-02-15T06:48:19;94226.97;;;3.03;42.36
57248;BME280;55809;46.618;10.764;2023-02-15T06:50:47;94248.13;;;3.09;43.62
57248;BME280;55809;46.618;10.764;2023-02-15T06:53:14;94257.03;;;3.21;44.57
57248;BME280;55809;46.618;10.764;2023-02-15T06:55:41;94235.41;;;3.14;43.78
57248;BME280;55809;46.618;10.764;2023-02-15T06:58:08;94248.41;;;3.24;42.68
57248;BME280;55809;46.618;10.764;2023-02-15T07:00:35;94237.09;;;3.19;42.10
57248;BME280;55809;46.618;10.764;2023-02-15T07:03:02;94232.88;;;3.18;41.31
57248;BME280;55809;46.618;10.764;2023-02-15T07:05:33;94250.28;;;3.24;42.54
57248;BME280;55809;46.618;10.764;2023-02-15T07:08:02;94199.53;;;2.94;43.54
57248;BME280;55809;46.618;10.764;2023-02-15T07:10:29;94243.53;;;3.26;43.42
57248;BME280;55809;46.618;10.764;2023-02-15T07:12:56;94190.81;;;2.76;44.53
57248;BME280;55809;46.618;10.764;2023-02-15T07:15:22;94244.38;;;3.10;43.74
57248;BME280;55809;46.618;10.764;2023-02-15T07:17:50;94243.81;;;2.87;43.60
57248;BME280;55809;46.618;10.764;2023-02-15T07:20:19;94247.63;;;3.15;43.54
57248;BME280;55809;46.618;10.764;2023-02-15T07:22:47;94229.28;;;3.52;42.39
57248;BME280;55809;46.618;10.764;2023-02-15T07:25:16;94248.72;;;3.91;41.64
57248;BME280;55809;46.618;10.764;2023-02-15T07:27:43;94245.88;;;4.17;41.11
57248;BME280;55809;46.618;10.764;2023-02-15T07:30:13;94233.59;;;4.25;40.84
57248;BME280;55809;46.618;10.764;2023-02-15T07:32:40;94225.56;;;4.45;40.14
57248;BME280;55809;46.618;10.764;2023-02-15T07:35:21;94246.50;;;4.77;39.52
57248;BME280;55809;46.618;10.764;2023-02-15T07:37:48;94208.56;;;4.62;39.21
57248;BME280;55809;46.618;10.764;2023-02-15T07:40:17;94228.38;;;4.82;39.02
57248;BME280;55809;46.618;10.764;2023-02-15T07:42:44;94231.25;;;5.10;38.44
57248;BME280;55809;46.618;10.764;2023-02-15T07:45:11;94238.28;;;5.39;38.06
57248;BME280;55809;46.618;10.764;2023-02-15T07:47:38;94230.88;;;5.70;36.98
57248;BME280;55809;46.618;10.764;2023-02-15T07:50:06;94233.06;;;5.92;36.75
57248;BME280;55809;46.618;10.764;2023-02-15T07:52:33;94221.00;;;6.23;36.29
57248;BME280;55809;46.618;10.764;2023-02-15T07:55:00;94165.81;;;6.22;35.72
57248;BME280;55809;46.618;10.764;2023-02-15T07:57:28;94181.34;;;6.56;35.27
57248;BME280;55809;46.618;10.764;2023-02-15T07:59:56;94164.50;;;6.72;34.61
57248;BME280;55809;46.618;10.764;2023-02-15T08:02:23;94197.72;;;7.27;34.67
57248;BME280;55809;46.618;10.764;2023-02-15T08:04:50;94196.09;;;7.54;33.83
57248;BME280;55809;46.618;10.764;2023-02-15T08:07:17;94200.41;;;7.90;33.21
57248;BME280;55809;46.618;10.764;2023-02-15T08:09:44;94170.13;;;7.93;32.66
57248;BME280;55809;46.618;10.764;2023-02-15T08:12:11;94196.81;;;8.37;32.54
57248;BME280;55809;46.618;10.764;2023-02-15T08:14:39;94196.78;;;8.53;32.58
57248;BME280;55809;46.618;10.764;2023-02-15T08:17:07;94193.78;;;8.58;33.37
57248;BME280;55809;46.618;10.764;2023-02-15T08:19:34;94177.56;;;8.74;32.75
57248;BME280;55809;46.618;10.764;2023-02-15T08:22:02;94195.69;;;8.97;32.79
57248;BME280;55809;46.618;10.764;2023-02-15T08:24:31;94184.09;;;9.15;31.74
57248;BME280;55809;46.618;10.764;2023-02-15T08:26:59;94178.28;;;9.36;31.25
57248;BME280;55809;46.618;10.764;2023-02-15T08:29:29;94133.75;;;9.20;31.51
57248;BME280;55809;46.618;10.764;2023-02-15T08:32:00;94173.91;;;9.74;30.58
57248;BME280;55809;46.618;10.764;2023-02-15T08:34:28;94104.53;;;9.45;30.39
57248;BME280;55809;46.618;10.764;2023-02-15T08:36:56;94170.50;;;10.04;30.43
57248;BME280;55809;46.618;10.764;2023-02-15T08:39:23;94175.38;;;10.25;29.68
57248;BME280;55809;46.618;10.764;2023-02-15T08:41:51;94155.88;;;10.35;29.26
57248;BME280;55809;46.618;10.764;2023-02-15T08:44:19;94168.38;;;10.47;29.88
57248;BME280;55809;46.618;10.764;2023-02-15T08:46:47;94131.69;;;10.42;29.60
57248;BME280;55809;46.618;10.764;2023-02-15T08:49:18;94166.44;;;10.77;28.33
57248;BME280;55809;46.618;10.764;2023-02-15T08:51:47;94151.25;;;10.99;29.00
57248;BME280;55809;46.618;10.764;2023-02-15T08:54:16;94165.78;;;11.28;27.52
57248;BME280;55809;46.618;10.764;2023-02-15T08:56:44;94149.31;;;11.44;27.20
57248;BME280;55809;46.618;10.764;2023-02-15T08:59:13;94127.31;;;11.42;28.53
57248;BME280;55809;46.618;10.764;2023-02-15T09:01:41;94102.31;;;11.12;29.62
57248;BME280;55809;46.618;10.764;2023-02-15T09:04:09;94130.50;;;11.11;29.72
57248;BME280;55809;46.618;10.764;2023-02-15T09:06:38;94141.78;;;11.20;28.99
57248;BME280;55809;46.618;10.764;2023-02-15T09:09:07;94129.03;;;11.20;28.66
57248;BME280;55809;46.618;10.764;2023-02-15T09:11:36;94120.13;;;11.16;28.14
57248;BME280;55809;46.618;10.764;2023-02-15T09:14:05;94128.63;;;11.18;28.16
57248;BME280;55809;46.618;10.764;2023-02-15T09:16:35;94118.66;;;11.22;28.37
57248;BME280;55809;46.618;10.764;2023-02-15T09:19:03;94151.81;;;11.67;27.37
57248;BME280;55809;46.618;10.764;2023-02-15T09:21:33;94156.38;;;11.56;27.92
57248;BME280;55809;46.618;10.764;2023-02-15T09:24:04;94117.00;;;11.59;27.32
57248;BME280;55809;46.618;10.764;2023-02-15T09:26:34;94101.19;;;11.64;27.13
57248;BME280;55809;46.618;10.764;2023-02-15T09:29:02;94152.03;;;11.92;26.10
57248;BME280;55809;46.618;10.764;2023-02-15T09:31:30;94105.84;;;11.67;26.01
57248;BME280;55809;46.618;10.764;2023-02-15T09:33:58;94095.47;;;11.73;26.21
57248;BME280;55809;46.618;10.764;2023-02-15T09:36:29;94134.81;;;12.18;25.70
57248;BME280;55809;46.618;10.764;2023-02-15T09:38:58;94141.44;;;12.32;25.51
57248;BME280;55809;46.618;10.764;2023-02-15T09:42:05;94143.78;;;12.37;26.30
57248;BME280;55809;46.618;10.764;2023-02-15T09:44:57;94138.44;;;12.51;25.02
57248;BME280;55809;46.618;10.764;2023-02-15T09:47:54;94138.44;;;12.51;25.02
57248;BME280;55809;46.618;10.764;2023-02-15T09:50:33;94066.00;;;12.30;25.41
57248;BME280;55809;46.618;10.764;2023-02-15T09:53:24;94090.44;;;12.41;25.04
57248;BME280;55809;46.618;10.764;2023-02-15T09:56:02;94100.97;;;12.75;25.57
57248;BME280;55809;46.618;10.764;2023-02-15T09:58:44;94094.81;;;12.78;25.10
57248;BME280;55809;46.618;10.764;2023-02-15T10:01:21;94118.09;;;13.00;25.18
57248;BME280;55809;46.618;10.764;2023-02-15T10:04:03;64767.38;;;-145.41;nan
57248;BME280;55809;46.618;10.764;2023-02-15T10:06:36;64767.38;;;-145.41;100.00
57248;BME280;55809;46.618;10.764;2023-02-15T10:09:28;94118.09;;;13.00;25.18
57248;BME280;55809;46.618;10.764;2023-02-15T10:12:09;94086.75;;;13.35;23.98
57248;BME280;55809;46.618;10.764;2023-02-15T10:14:56;94079.03;;;13.44;23.89
57248;BME280;55809;46.618;10.764;2023-02-15T10:17:41;94126.69;;;13.74;23.91
57248;BME280;55809;46.618;10.764;2023-02-15T10:20:20;94123.19;;;13.73;24.49
57248;BME280;55809;46.618;10.764;2023-02-15T10:23:03;94078.22;;;13.22;24.39
57248;BME280;55809;46.618;10.764;2023-02-15T10:25:40;94064.25;;;13.09;24.21
57248;BME280;55809;46.618;10.764;2023-02-15T10:28:13;94039.09;;;13.09;23.27
57248;BME280;55809;46.618;10.764;2023-02-15T10:30:46;94070.09;;;13.26;23.76
57248;BME280;55809;46.618;10.764;2023-02-15T10:33:27;94053.47;;;13.31;24.32
57248;BME280;55809;46.618;10.764;2023-02-15T10:36:05;94096.06;;;13.55;23.68
57248;BME280;55809;46.618;10.764;2023-02-15T10:38:39;94054.22;;;13.38;23.72
57248;BME280;55809;46.618;10.764;2023-02-15T10:41:17;94052.66;;;13.45;24.39
57248;BME280;55809;46.618;10.764;2023-02-15T10:44:09;94090.25;;;13.71;23.64
57248;BME280;55809;46.618;10.764;2023-02-15T10:46:55;94050.75;;;13.52;23.31
57248;BME280;55809;46.618;10.764;2023-02-15T10:49:34;94086.75;;;13.89;23.22
57248;BME280;55809;46.618;10.764;2023-02-15T10:52:17;94064.66;;;13.69;23.93
57248;BME280;55809;46.618;10.764;2023-02-15T10:54:51;94069.28;;;13.75;22.71
57248;BME280;55809;46.618;10.764;2023-02-15T10:57:26;94067.38;;;13.76;23.22
57248;BME280;55809;46.618;10.764;2023-02-15T11:00:05;94032.50;;;13.46;24.03
57248;BME280;55809;46.618;10.764;2023-02-15T11:05:43;94015.88;;;13.51;23.99
57248;BME280;55809;46.618;10.764;2023-02-15T11:08:15;94029.03;;;13.59;23.31
57248;BME280;55809;46.618;10.764;2023-02-15T11:10:45;94052.63;;;13.84;23.82
57248;BME280;55809;46.618;10.764;2023-02-15T11:13:17;94011.19;;;13.66;23.48
57248;BME280;55809;46.618;10.764;2023-02-15T11:15:47;94004.25;;;13.47;23.69
57248;BME280;55809;46.618;10.764;2023-02-15T11:18:21;94044.47;;;13.88;22.87
57248;BME280;55809;46.618;10.764;2023-02-15T11:20:57;93997.63;;;13.55;23.62
57248;BME280;55809;46.618;10.764;2023-02-15T11:23:28;93995.31;;;13.60;23.06
57248;BME280;55809;46.618;10.764;2023-02-15T11:25:57;93958.47;;;13.67;23.56
57248;BME280;55809;46.618;10.764;2023-02-15T11:28:31;93992.97;;;13.66;23.82
57248;BME280;55809;46.618;10.764;2023-02-15T11:31:12;93977.84;;;13.72;22.57
57248;BME280;55809;46.618;10.764;2023-02-15T11:33:44;93968.16;;;13.64;23.38
57248;BME280;55809;46.618;10.764;2023-02-15T11:36:19;93974.72;;;13.77;23.15
57248;BME280;55809;46.618;10.764;2023-02-15T11:38:49;93958.03;;;13.82;23.74
57248;BME280;55809;46.618;10.764;2023-02-15T11:41:19;93951.84;;;13.82;23.20
57248;BME280;55809;46.618;10.764;2023-02-15T11:43:54;93944.13;;;13.73;22.95
57248;BME280;55809;46.618;10.764;2023-02-15T11:46:26;93976.59;;;13.95;22.82
57248;BME280;55809;46.618;10.764;2023-02-15T11:48:55;93955.22;;;14.04;23.02
57248;BME280;55809;46.618;10.764;2023-02-15T11:51:25;93980.31;;;14.29;22.76
57248;BME280;55809;46.618;10.764;2023-02-15T11:53:53;93979.53;;;14.32;23.17
57248;BME280;55809;46.618;10.764;2023-02-15T11:56:23;93929.34;;;13.89;22.89
57248;BME280;55809;46.618;10.764;2023-02-15T11:58:55;93977.38;;;13.99;23.20
57248;BME280;55809;46.618;10.764;2023-02-15T12:01:33;93920.09;;;13.65;22.02
57248;BME280;55809;46.618;10.764;2023-02-15T12:04:04;93925.09;;;13.77;21.90
57248;BME280;55809;46.618;10.764;2023-02-15T12:06:41;93926.28;;;13.72;22.94
57248;BME280;55809;46.618;10.764;2023-02-15T12:09:18;93918.94;;;13.69;22.58
57248;BME280;55809;46.618;10.764;2023-02-15T12:11:47;93916.56;;;13.75;22.63
57248;BME280;55809;46.618;10.764;2023-02-15T12:14:14;93921.63;;;13.73;22.55
57248;BME280;55809;46.618;10.764;2023-02-15T12:16:45;93916.56;;;13.82;22.82
57248;BME280;55809;46.618;10.764;2023-02-15T12:19:29;93948.72;;;13.87;22.21
57248;BME280;55809;46.618;10.764;2023-02-15T12:22:01;93951.09;;;13.67;22.39
57248;BME280;55809;46.618;10.764;2023-02-15T12:24:30;93936.75;;;13.70;22.37
57248;BME280;55809;46.618;10.764;2023-02-15T12:27:02;93875.22;;;13.42;21.61
57248;BME280;55809;46.618;10.764;2023-02-15T12:29:33;93895.75;;;13.50;21.66
57248;BME280;55809;46.618;10.764;2023-02-15T12:32:01;93894.53;;;13.66;21.95
57248;BME280;55809;46.618;10.764;2023-02-15T12:34:30;93925.91;;;13.67;22.15
57248;BME280;55809;46.618;10.764;2023-02-15T12:37:07;93922.38;;;13.77;22.43
57248;BME280;55809;46.618;10.764;2023-02-15T12:39:37;93915.81;;;13.71;22.53
57248;BME280;55809;46.618;10.764;2023-02-15T12:42:13;93895.38;;;13.48;22.21
57248;BME280;55809;46.618;10.764;2023-02-15T12:44:53;64767.38;;;-145.41;100.00
57248;BME280;55809;46.618;10.764;2023-02-15T12:47:22;64767.38;;;-145.41;100.00
57248;BME280;55809;46.618;10.764;2023-02-15T12:50:08;64767.38;;;-145.41;100.00
57248;BME280;55809;46.618;10.764;2023-02-15T12:52:44;64767.38;;;-145.41;100.00
57248;BME280;55809;46.618;10.764;2023-02-15T12:55:20;64767.38;;;-145.41;100.00
57248;BME280;55809;46.618;10.764;2023-02-15T12:57:47;64767.38;;;-145.41;100.00
57248;BME280;55809;46.618;10.764;2023-02-15T13:00:27;64767.38;;;-145.41;100.00
57248;BME280;55809;46.618;10.764;2023-02-15T13:02:58;93884.13;;;13.53;22.43
57248;BME280;55809;46.618;10.764;2023-02-15T13:05:30;93839.66;;;13.19;22.73
57248;BME280;55809;46.618;10.764;2023-02-15T13:08:01;93839.66;;;13.19;23.45
57248;BME280;55809;46.618;10.764;2023-02-15T13:10:32;93840.50;;;12.98;23.46
57248;BME280;55809;46.618;10.764;2023-02-15T13:13:01;93796.41;;;12.76;23.22
57248;BME280;55809;46.618;10.764;2023-02-15T13:15:35;93805.31;;;12.83;22.79
57248;BME280;55809;46.618;10.764;2023-02-15T13:18:05;93865.22;;;13.14;22.62
57248;BME280;55809;46.618;10.764;2023-02-15T13:20:37;93814.63;;;12.68;23.42
57248;BME280;55809;46.618;10.764;2023-02-15T13:23:21;93751.63;;;12.10;23.16
57248;BME280;55809;46.618;10.764;2023-02-15T13:25:54;93820.84;;;12.54;23.23
57248;BME280;55809;46.618;10.764;2023-02-15T13:28:25;93811.91;;;12.47;23.07
57248;BME280;55809;46.618;10.764;2023-02-15T13:30:55;93816.97;;;12.48;22.52
57248;BME280;55809;46.618;10.764;2023-02-15T13:33:26;93813.09;;;12.42;22.44